sensor_id;sensor_type;location;lat;lon;timestamp;temperature;humidity
16827;DHT22;8530;49.540;8.576;2023-04-07T00:01:27;8.70;95.00
16827;DHT22;8530;49.540;8.576;2023-04-07T00:03:54;8.70;95.10
16827;DHT22;8530;49.540;8.576;2023-04-07T00:06:21;8.70;95.10
16827;DHT22;8530;49.540;8.576;2023-04-07T00:08:49;8.70;95.20
16827;DHT22;8530;49.540;8.576;2023-04-07T00:11:16;8.70;95.30
16827;DHT22;8530;49.540;8.576;2023-04-07T00:13:42;8.70;95.40
16827;DHT22;8530;49.540;8.576;2023-04-07T00:16:09;8.70;95.50
16827;DHT22;8530;49.540;8.576;2023-04-07T00:18:36;8.70;95.60
16827;DHT22;8530;49.540;8.576;2023-04-07T00:21:03;8.80;95.80
16827;DHT22;8530;49.540;8.576;2023-04-07T00:23:30;8.80;95.80
16827;DHT22;8530;49.540;8.576;2023-04-07T00:25:58;8.80;95.90
16827;DHT22;8530;49.540;8.576;2023-04-07T00:28:25;8.80;95.90
16827;DHT22;8530;49.540;8.576;2023-04-07T00:30:52;8.70;95.90
16827;DHT22;8530;49.540;8.576;2023-04-07T00:33:18;8.70;96.10
16827;DHT22;8530;49.540;8.576;2023-04-07T00:35:45;8.70;96.10
16827;DHT22;8530;49.540;8.576;2023-04-07T00:38:12;8.70;96.10
16827;DHT22;8530;49.540;8.576;2023-04-07T00:40:38;8.70;96.10
16827;DHT22;8530;49.540;8.576;2023-04-07T00:43:06;8.70;96.20
16827;DHT22;8530;49.540;8.576;2023-04-07T00:45:33;8.70;96.20
16827;DHT22;8530;49.540;8.576;2023-04-07T00:48:00;8.70;96.30
16827;DHT22;8530;49.540;8.576;2023-04-07T00:50:27;8.70;96.30
16827;DHT22;8530;49.540;8.576;2023-04-07T00:52:54;8.70;96.60
16827;DHT22;8530;49.540;8.576;2023-04-07T00:55:21;8.70;96.50
16827;DHT22;8530;49.540;8.576;2023-04-07T00:57:48;8.70;96.50
16827;DHT22;8530;49.540;8.576;2023-04-07T01:00:17;8.70;96.50
16827;DHT22;8530;49.540;8.576;2023-04-07T01:02:51;8.70;96.80
16827;DHT22;8530;49.540;8.576;2023-04-07T01:05:25;8.70;96.50
16827;DHT22;8530;49.540;8.576;2023-04-07T01:08:02;8.70;96.60
16827;DHT22;8530;49.540;8.576;2023-04-07T01:10:36;8.70;96.60
16827;DHT22;8530;49.540;8.576;2023-04-07T01:13:11;8.70;96.60
16827;DHT22;8530;49.540;8.576;2023-04-07T01:15:46;8.70;96.70
16827;DHT22;8530;49.540;8.576;2023-04-07T01:18:20;8.70;96.70
16827;DHT22;8530;49.540;8.576;2023-04-07T01:20:50;8.70;96.70
16827;DHT22;8530;49.540;8.576;2023-04-07T01:23:24;8.70;96.70
16827;DHT22;8530;49.540;8.576;2023-04-07T01:26:06;8.70;96.80
16827;DHT22;8530;49.540;8.576;2023-04-07T01:31:52;8.70;96.80
16827;DHT22;8530;49.540;8.576;2023-04-07T01:34:21;8.70;96.80
16827;DHT22;8530;49.540;8.576;2023-04-07T01:36:50;8.70;96.80
16827;DHT22;8530;49.540;8.576;2023-04-07T01:39:18;8.70;96.80
16827;DHT22;8530;49.540;8.576;2023-04-07T01:41:45;8.70;96.90
16827;DHT22;8530;49.540;8.576;2023-04-07T01:44:13;8.70;96.90
16827;DHT22;8530;49.540;8.576;2023-04-07T01:46:40;8.70;96.90
16827;DHT22;8530;49.540;8.576;2023-04-07T01:49:10;8.70;97.00
16827;DHT22;8530;49.540;8.576;2023-04-07T01:51:38;8.70;97.10
16827;DHT22;8530;49.540;8.576;2023-04-07T01:54:06;8.70;97.10
16827;DHT22;8530;49.540;8.576;2023-04-07T01:56:34;8.80;97.20
16827;DHT22;8530;49.540;8.576;2023-04-07T01:59:00;8.80;97.20
16827;DHT22;8530;49.540;8.576;2023-04-07T02:01:28;8.80;97.20
16827;DHT22;8530;49.540;8.576;2023-04-07T02:03:59;8.80;97.20
16827;DHT22;8530;49.540;8.576;2023-04-07T02:06:31;8.80;97.20
16827;DHT22;8530;49.540;8.576;2023-04-07T02:09:03;8.80;97.20
16827;DHT22;8530;49.540;8.576;2023-04-07T02:11:32;8.80;97.20
16827;DHT22;8530;49.540;8.576;2023-04-07T02:14:00;8.80;97.20
16827;DHT22;8530;49.540;8.576;2023-04-07T02:16:29;8.80;97.20
16827;DHT22;8530;49.540;8.576;2023-04-07T02:18:56;8.80;97.20
16827;DHT22;8530;49.540;8.576;2023-04-07T02:21:24;8.80;97.20
16827;DHT22;8530;49.540;8.576;2023-04-07T02:23:53;8.90;97.30
16827;DHT22;8530;49.540;8.576;2023-04-07T02:26:20;8.90;97.30
16827;DHT22;8530;49.540;8.576;2023-04-07T02:28:47;8.90;97.30
16827;DHT22;8530;49.540;8.576;2023-04-07T02:31:14;8.80;97.30
16827;DHT22;8530;49.540;8.576;2023-04-07T02:33:40;8.80;97.20
16827;DHT22;8530;49.540;8.576;2023-04-07T02:36:07;8.80;97.20
16827;DHT22;8530;49.540;8.576;2023-04-07T02:38:34;8.80;97.20
16827;DHT22;8530;49.540;8.576;2023-04-07T02:41:02;8.80;97.20
16827;DHT22;8530;49.540;8.576;2023-04-07T02:43:29;8.80;97.30
16827;DHT22;8530;49.540;8.576;2023-04-07T02:45:56;8.70;97.30
16827;DHT22;8530;49.540;8.576;2023-04-07T02:48:22;8.70;97.30
16827;DHT22;8530;49.540;8.576;2023-04-07T02:50:49;8.70;97.30
16827;DHT22;8530;49.540;8.576;2023-04-07T02:53:16;8.60;97.30
16827;DHT22;8530;49.540;8.576;2023-04-07T02:55:42;8.60;97.30
16827;DHT22;8530;49.540;8.576;2023-04-07T02:58:10;8.60;97.40
16827;DHT22;8530;49.540;8.576;2023-04-07T03:00:37;8.50;97.40
16827;DHT22;8530;49.540;8.576;2023-04-07T03:03:04;8.50;97.40
16827;DHT22;8530;49.540;8.576;2023-04-07T03:05:30;8.50;97.40
16827;DHT22;8530;49.540;8.576;2023-04-07T03:07:57;8.50;97.70
16827;DHT22;8530;49.540;8.576;2023-04-07T03:10:24;8.40;97.40
16827;DHT22;8530;49.540;8.576;2023-04-07T03:12:51;8.40;97.50
16827;DHT22;8530;49.540;8.576;2023-04-07T03:15:19;8.40;97.60
16827;DHT22;8530;49.540;8.576;2023-04-07T03:17:45;8.40;97.60
16827;DHT22;8530;49.540;8.576;2023-04-07T03:20:12;8.40;97.60
16827;DHT22;8530;49.540;8.576;2023-04-07T03:22:39;8.40;97.60
16827;DHT22;8530;49.540;8.576;2023-04-07T03:25:06;8.40;97.60
16827;DHT22;8530;49.540;8.576;2023-04-07T03:27:33;8.40;97.60
16827;DHT22;8530;49.540;8.576;2023-04-07T03:30:00;8.40;97.60
16827;DHT22;8530;49.540;8.576;2023-04-07T03:32:28;8.40;97.70
16827;DHT22;8530;49.540;8.576;2023-04-07T03:34:55;8.30;97.70
16827;DHT22;8530;49.540;8.576;2023-04-07T03:37:22;8.30;97.70
16827;DHT22;8530;49.540;8.576;2023-04-07T03:39:48;8.30;97.70
16827;DHT22;8530;49.540;8.576;2023-04-07T03:42:15;8.30;97.70
16827;DHT22;8530;49.540;8.576;2023-04-07T03:44:42;8.30;97.80
16827;DHT22;8530;49.540;8.576;2023-04-07T03:47:09;8.30;97.80
16827;DHT22;8530;49.540;8.576;2023-04-07T03:49:37;8.30;97.80
16827;DHT22;8530;49.540;8.576;2023-04-07T03:52:04;8.30;97.80
16827;DHT22;8530;49.540;8.576;2023-04-07T03:54:31;8.30;97.80
16827;DHT22;8530;49.540;8.576;2023-04-07T03:56:59;8.30;97.80
16827;DHT22;8530;49.540;8.576;2023-04-07T03:59:26;8.30;97.90
16827;DHT22;8530;49.540;8.576;2023-04-07T04:01:53;8.30;98.00
16827;DHT22;8530;49.540;8.576;2023-04-07T04:04:20;8.30;98.00
16827;DHT22;8530;49.540;8.576;2023-04-07T04:06:50;8.40;98.00
16827;DHT22;8530;49.540;8.576;2023-04-07T04:09:17;8.40;98.00
16827;DHT22;8530;49.540;8.576;2023-04-07T04:11:43;8.40;98.00
16827;DHT22;8530;49.540;8.576;2023-04-07T04:14:10;8.40;98.00
16827;DHT22;8530;49.540;8.576;2023-04-07T04:16:37;8.50;98.10
16827;DHT22;8530;49.540;8.576;2023-04-07T04:19:04;8.50;98.10
16827;DHT22;8530;49.540;8.576;2023-04-07T04:21:31;8.50;98.10
16827;DHT22;8530;49.540;8.576;2023-04-07T04:23:59;8.60;98.10
16827;DHT22;8530;49.540;8.576;2023-04-07T04:26:25;8.60;98.10
16827;DHT22;8530;49.540;8.576;2023-04-07T04:28:54;8.60;98.10
16827;DHT22;8530;49.540;8.576;2023-04-07T04:31:21;8.60;98.10
16827;DHT22;8530;49.540;8.576;2023-04-07T04:33:48;8.70;98.10
16827;DHT22;8530;49.540;8.576;2023-04-07T04:36:14;8.60;98.10
16827;DHT22;8530;49.540;8.576;2023-04-07T04:38:41;8.60;98.10
16827;DHT22;8530;49.540;8.576;2023-04-07T04:41:09;8.60;98.00
16827;DHT22;8530;49.540;8.576;2023-04-07T04:43:36;8.60;98.10
16827;DHT22;8530;49.540;8.576;2023-04-07T04:46:03;8.60;98.10
16827;DHT22;8530;49.540;8.576;2023-04-07T04:48:30;8.60;98.10
16827;DHT22;8530;49.540;8.576;2023-04-07T04:50:56;8.50;98.10
16827;DHT22;8530;49.540;8.576;2023-04-07T04:53:23;8.50;98.10
16827;DHT22;8530;49.540;8.576;2023-04-07T04:55:50;8.50;98.20
16827;DHT22;8530;49.540;8.576;2023-04-07T04:58:19;8.50;98.20
16827;DHT22;8530;49.540;8.576;2023-04-07T05:00:46;8.60;98.20
16827;DHT22;8530;49.540;8.576;2023-04-07T05:03:13;8.50;98.20
16827;DHT22;8530;49.540;8.576;2023-04-07T05:05:40;8.60;98.30
16827;DHT22;8530;49.540;8.576;2023-04-07T05:08:09;8.60;98.30
16827;DHT22;8530;49.540;8.576;2023-04-07T05:10:37;8.60;98.30
16827;DHT22;8530;49.540;8.576;2023-04-07T05:13:04;8.60;98.30
16827;DHT22;8530;49.540;8.576;2023-04-07T05:15:32;8.60;98.30
16827;DHT22;8530;49.540;8.576;2023-04-07T05:17:59;8.60;98.30
16827;DHT22;8530;49.540;8.576;2023-04-07T05:20:25;8.60;98.30
16827;DHT22;8530;49.540;8.576;2023-04-07T05:22:52;8.60;98.30
16827;DHT22;8530;49.540;8.576;2023-04-07T05:25:19;8.60;98.30
16827;DHT22;8530;49.540;8.576;2023-04-07T05:27:45;8.60;98.30
16827;DHT22;8530;49.540;8.576;2023-04-07T05:30:13;8.60;98.40
16827;DHT22;8530;49.540;8.576;2023-04-07T05:32:41;8.70;98.40
16827;DHT22;8530;49.540;8.576;2023-04-07T05:35:08;8.70;98.50
16827;DHT22;8530;49.540;8.576;2023-04-07T05:37:35;8.70;98.50
16827;DHT22;8530;49.540;8.576;2023-04-07T05:40:02;8.70;98.50
16827;DHT22;8530;49.540;8.576;2023-04-07T05:42:29;8.80;98.50
16827;DHT22;8530;49.540;8.576;2023-04-07T05:44:56;8.80;98.50
16827;DHT22;8530;49.540;8.576;2023-04-07T05:47:23;8.80;98.50
16827;DHT22;8530;49.540;8.576;2023-04-07T05:49:51;8.80;98.50
16827;DHT22;8530;49.540;8.576;2023-04-07T05:52:17;8.80;98.40
16827;DHT22;8530;49.540;8.576;2023-04-07T05:54:44;8.90;98.50
16827;DHT22;8530;49.540;8.576;2023-04-07T05:57:11;8.90;98.50
16827;DHT22;8530;49.540;8.576;2023-04-07T05:59:38;8.90;98.50
16827;DHT22;8530;49.540;8.576;2023-04-07T06:02:04;9.00;98.50
16827;DHT22;8530;49.540;8.576;2023-04-07T06:04:31;9.00;98.50
16827;DHT22;8530;49.540;8.576;2023-04-07T06:07:01;9.10;98.50
16827;DHT22;8530;49.540;8.576;2023-04-07T06:09:28;9.10;98.50
16827;DHT22;8530;49.540;8.576;2023-04-07T06:11:55;9.10;98.40
16827;DHT22;8530;49.540;8.576;2023-04-07T06:14:22;9.20;98.50
16827;DHT22;8530;49.540;8.576;2023-04-07T06:16:49;9.20;98.50
16827;DHT22;8530;49.540;8.576;2023-04-07T06:19:16;9.30;98.50
16827;DHT22;8530;49.540;8.576;2023-04-07T06:21:43;9.40;98.50
16827;DHT22;8530;49.540;8.576;2023-04-07T06:24:11;9.50;98.50
16827;DHT22;8530;49.540;8.576;2023-04-07T06:26:38;9.50;98.40
16827;DHT22;8530;49.540;8.576;2023-04-07T06:29:05;9.60;98.40
16827;DHT22;8530;49.540;8.576;2023-04-07T06:31:32;9.70;98.40
16827;DHT22;8530;49.540;8.576;2023-04-07T06:33:59;9.80;98.30
16827;DHT22;8530;49.540;8.576;2023-04-07T06:36:26;9.90;98.30
16827;DHT22;8530;49.540;8.576;2023-04-07T06:38:53;9.90;98.30
16827;DHT22;8530;49.540;8.576;2023-04-07T06:41:21;10.10;97.80
16827;DHT22;8530;49.540;8.576;2023-04-07T06:43:48;10.20;97.80
16827;DHT22;8530;49.540;8.576;2023-04-07T06:46:16;10.40;97.80
16827;DHT22;8530;49.540;8.576;2023-04-07T06:48:43;10.60;97.80
16827;DHT22;8530;49.540;8.576;2023-04-07T06:51:09;10.80;97.70
16827;DHT22;8530;49.540;8.576;2023-04-07T06:53:36;10.90;97.60
16827;DHT22;8530;49.540;8.576;2023-04-07T06:56:04;11.10;97.50
16827;DHT22;8530;49.540;8.576;2023-04-07T06:58:33;11.20;97.40
16827;DHT22;8530;49.540;8.576;2023-04-07T07:00:59;11.30;97.20
16827;DHT22;8530;49.540;8.576;2023-04-07T07:03:26;11.40;97.20
16827;DHT22;8530;49.540;8.576;2023-04-07T07:05:53;11.60;97.20
16827;DHT22;8530;49.540;8.576;2023-04-07T07:08:21;11.90;97.20
16827;DHT22;8530;49.540;8.576;2023-04-07T07:10:48;12.10;97.10
16827;DHT22;8530;49.540;8.576;2023-04-07T07:13:15;12.40;97.00
16827;DHT22;8530;49.540;8.576;2023-04-07T07:15:43;12.80;96.90
16827;DHT22;8530;49.540;8.576;2023-04-07T07:18:10;13.10;96.70
16827;DHT22;8530;49.540;8.576;2023-04-07T07:20:37;13.50;96.60
16827;DHT22;8530;49.540;8.576;2023-04-07T07:23:04;14.00;96.50
16827;DHT22;8530;49.540;8.576;2023-04-07T07:25:30;14.50;96.40
16827;DHT22;8530;49.540;8.576;2023-04-07T07:27:57;15.20;96.50
16827;DHT22;8530;49.540;8.576;2023-04-07T07:30:24;16.40;97.30
16827;DHT22;8530;49.540;8.576;2023-04-07T07:32:53;18.40;98.80
16827;DHT22;8530;49.540;8.576;2023-04-07T07:35:21;20.80;98.50
16827;DHT22;8530;49.540;8.576;2023-04-07T07:37:49;23.10;95.50
16827;DHT22;8530;49.540;8.576;2023-04-07T07:40:16;24.50;90.10
16827;DHT22;8530;49.540;8.576;2023-04-07T07:42:44;25.00;75.70
16827;DHT22;8530;49.540;8.576;2023-04-07T07:45:11;25.10;64.60
16827;DHT22;8530;49.540;8.576;2023-04-07T07:47:38;25.10;58.70
16827;DHT22;8530;49.540;8.576;2023-04-07T07:50:07;25.40;57.30
16827;DHT22;8530;49.540;8.576;2023-04-07T07:52:34;25.60;54.00
16827;DHT22;8530;49.540;8.576;2023-04-07T07:55:01;26.40;53.10
16827;DHT22;8530;49.540;8.576;2023-04-07T07:57:27;27.00;50.90
16827;DHT22;8530;49.540;8.576;2023-04-07T07:59:55;27.70;48.70
16827;DHT22;8530;49.540;8.576;2023-04-07T08:02:22;28.30;46.20
16827;DHT22;8530;49.540;8.576;2023-04-07T08:04:53;28.10;43.40
16827;DHT22;8530;49.540;8.576;2023-04-07T08:07:22;27.10;40.50
16827;DHT22;8530;49.540;8.576;2023-04-07T08:09:49;25.80;38.10
16827;DHT22;8530;49.540;8.576;2023-04-07T08:12:15;24.40;37.30
16827;DHT22;8530;49.540;8.576;2023-04-07T08:14:42;23.30;37.20
16827;DHT22;8530;49.540;8.576;2023-04-07T08:17:09;22.80;37.50
16827;DHT22;8530;49.540;8.576;2023-04-07T08:19:36;22.30;37.20
16827;DHT22;8530;49.540;8.576;2023-04-07T08:22:03;21.80;36.80
16827;DHT22;8530;49.540;8.576;2023-04-07T08:24:31;21.30;36.40
16827;DHT22;8530;49.540;8.576;2023-04-07T08:26:58;20.70;36.40
16827;DHT22;8530;49.540;8.576;2023-04-07T08:29:25;20.20;36.40
16827;DHT22;8530;49.540;8.576;2023-04-07T08:31:52;19.70;36.60
16827;DHT22;8530;49.540;8.576;2023-04-07T08:34:19;19.40;37.00
16827;DHT22;8530;49.540;8.576;2023-04-07T08:36:45;19.30;37.50
16827;DHT22;8530;49.540;8.576;2023-04-07T08:39:12;19.20;37.90
16827;DHT22;8530;49.540;8.576;2023-04-07T08:41:41;19.10;38.30
16827;DHT22;8530;49.540;8.576;2023-04-07T08:44:09;19.10;38.60
16827;DHT22;8530;49.540;8.576;2023-04-07T08:46:37;19.40;39.60
16827;DHT22;8530;49.540;8.576;2023-04-07T08:49:07;19.60;39.10
16827;DHT22;8530;49.540;8.576;2023-04-07T08:51:36;19.60;39.10
16827;DHT22;8530;49.540;8.576;2023-04-07T08:54:07;19.40;38.90
16827;DHT22;8530;49.540;8.576;2023-04-07T08:56:37;19.10;38.60
16827;DHT22;8530;49.540;8.576;2023-04-07T08:59:08;18.70;38.50
16827;DHT22;8530;49.540;8.576;2023-04-07T09:01:35;18.10;38.30
16827;DHT22;8530;49.540;8.576;2023-04-07T09:04:03;17.40;38.30
16827;DHT22;8530;49.540;8.576;2023-04-07T09:06:30;16.80;38.70
16827;DHT22;8530;49.540;8.576;2023-04-07T09:08:57;16.40;39.20
16827;DHT22;8530;49.540;8.576;2023-04-07T09:11:25;16.20;40.40
16827;DHT22;8530;49.540;8.576;2023-04-07T09:13:52;16.20;40.50
16827;DHT22;8530;49.540;8.576;2023-04-07T09:16:20;16.30;41.40
16827;DHT22;8530;49.540;8.576;2023-04-07T09:18:48;16.20;41.00
16827;DHT22;8530;49.540;8.576;2023-04-07T09:21:15;16.20;41.20
16827;DHT22;8530;49.540;8.576;2023-04-07T09:23:41;16.10;41.50
16827;DHT22;8530;49.540;8.576;2023-04-07T09:26:19;16.20;42.00
16827;DHT22;8530;49.540;8.576;2023-04-07T09:28:47;16.70;42.80
16827;DHT22;8530;49.540;8.576;2023-04-07T09:31:15;17.00;43.00
16827;DHT22;8530;49.540;8.576;2023-04-07T09:33:43;17.30;43.10
16827;DHT22;8530;49.540;8.576;2023-04-07T09:36:09;17.50;43.10
16827;DHT22;8530;49.540;8.576;2023-04-07T09:38:37;17.80;43.20
16827;DHT22;8530;49.540;8.576;2023-04-07T09:41:06;18.00;43.40
16827;DHT22;8530;49.540;8.576;2023-04-07T09:43:35;18.10;43.20
16827;DHT22;8530;49.540;8.576;2023-04-07T09:46:07;18.30;43.30
16827;DHT22;8530;49.540;8.576;2023-04-07T09:48:34;18.40;43.20
16827;DHT22;8530;49.540;8.576;2023-04-07T09:51:06;18.50;43.10
16827;DHT22;8530;49.540;8.576;2023-04-07T09:53:41;18.80;43.30
16827;DHT22;8530;49.540;8.576;2023-04-07T09:56:09;19.00;43.00
16827;DHT22;8530;49.540;8.576;2023-04-07T09:58:38;19.10;42.90
16827;DHT22;8530;49.540;8.576;2023-04-07T10:01:06;19.10;42.70
16827;DHT22;8530;49.540;8.576;2023-04-07T10:03:33;19.20;42.50
16827;DHT22;8530;49.540;8.576;2023-04-07T10:06:00;19.40;42.30
16827;DHT22;8530;49.540;8.576;2023-04-07T10:08:32;19.30;42.00
16827;DHT22;8530;49.540;8.576;2023-04-07T10:11:00;19.10;41.60
16827;DHT22;8530;49.540;8.576;2023-04-07T10:13:28;18.90;41.40
16827;DHT22;8530;49.540;8.576;2023-04-07T10:15:55;18.50;41.10
16827;DHT22;8530;49.540;8.576;2023-04-07T10:18:27;18.10;41.10
16827;DHT22;8530;49.540;8.576;2023-04-07T10:20:55;17.70;41.30
16827;DHT22;8530;49.540;8.576;2023-04-07T10:23:25;17.20;41.30
16827;DHT22;8530;49.540;8.576;2023-04-07T10:25:57;16.70;41.50
16827;DHT22;8530;49.540;8.576;2023-04-07T10:28:26;16.30;41.80
16827;DHT22;8530;49.540;8.576;2023-04-07T10:30:54;15.90;42.20
16827;DHT22;8530;49.540;8.576;2023-04-07T10:33:48;15.60;42.60
16827;DHT22;8530;49.540;8.576;2023-04-07T10:36:16;15.30;43.50
16827;DHT22;8530;49.540;8.576;2023-04-07T10:41:44;14.80;44.70
16827;DHT22;8530;49.540;8.576;2023-04-07T10:44:44;14.70;45.10
16827;DHT22;8530;49.540;8.576;2023-04-07T10:47:11;14.60;46.10
16827;DHT22;8530;49.540;8.576;2023-04-07T10:49:38;14.70;46.30
16827;DHT22;8530;49.540;8.576;2023-04-07T10:52:21;14.80;46.90
16827;DHT22;8530;49.540;8.576;2023-04-07T10:58:17;15.00;48.00
16827;DHT22;8530;49.540;8.576;2023-04-07T11:01:15;15.10;48.50
16827;DHT22;8530;49.540;8.576;2023-04-07T11:03:52;15.30;48.90
16827;DHT22;8530;49.540;8.576;2023-04-07T11:06:19;15.50;49.20
16827;DHT22;8530;49.540;8.576;2023-04-07T11:08:47;15.80;49.40
16827;DHT22;8530;49.540;8.576;2023-04-07T11:11:16;16.20;49.90
16827;DHT22;8530;49.540;8.576;2023-04-07T11:13:44;16.40;50.00
16827;DHT22;8530;49.540;8.576;2023-04-07T11:16:13;16.70;50.10
16827;DHT22;8530;49.540;8.576;2023-04-07T11:18:40;16.90;50.10
16827;DHT22;8530;49.540;8.576;2023-04-07T11:21:07;17.10;50.00
16827;DHT22;8530;49.540;8.576;2023-04-07T11:23:37;17.20;49.70
16827;DHT22;8530;49.540;8.576;2023-04-07T11:26:05;17.10;49.20
16827;DHT22;8530;49.540;8.576;2023-04-07T11:28:32;17.20;49.30
16827;DHT22;8530;49.540;8.576;2023-04-07T11:31:00;17.30;49.20
16827;DHT22;8530;49.540;8.576;2023-04-07T11:33:28;17.30;49.00
16827;DHT22;8530;49.540;8.576;2023-04-07T11:35:58;17.50;49.10
16827;DHT22;8530;49.540;8.576;2023-04-07T11:38:28;17.60;49.00
16827;DHT22;8530;49.540;8.576;2023-04-07T11:40:56;17.60;48.90
16827;DHT22;8530;49.540;8.576;2023-04-07T11:43:24;17.80;48.90
16827;DHT22;8530;49.540;8.576;2023-04-07T11:46:09;17.90;48.60
16827;DHT22;8530;49.540;8.576;2023-04-07T11:48:37;18.10;48.20
16827;DHT22;8530;49.540;8.576;2023-04-07T11:51:05;18.20;48.00
16827;DHT22;8530;49.540;8.576;2023-04-07T11:53:34;18.20;47.80
16827;DHT22;8530;49.540;8.576;2023-04-07T11:56:04;18.10;47.80
16827;DHT22;8530;49.540;8.576;2023-04-07T11:58:31;18.10;48.00
16827;DHT22;8530;49.540;8.576;2023-04-07T12:01:00;17.90;47.70
16827;DHT22;8530;49.540;8.576;2023-04-07T12:03:32;17.80;47.70
16827;DHT22;8530;49.540;8.576;2023-04-07T12:05:59;17.60;47.60
16827;DHT22;8530;49.540;8.576;2023-04-07T12:08:37;17.60;47.70
16827;DHT22;8530;49.540;8.576;2023-04-07T12:11:04;17.60;47.70
16827;DHT22;8530;49.540;8.576;2023-04-07T12:13:32;17.50;47.60
16827;DHT22;8530;49.540;8.576;2023-04-07T12:15:59;17.30;47.60
16827;DHT22;8530;49.540;8.576;2023-04-07T12:18:26;17.30;47.70
16827;DHT22;8530;49.540;8.576;2023-04-07T12:20:54;17.20;47.60
16827;DHT22;8530;49.540;8.576;2023-04-07T12:23:23;17.10;47.60
16827;DHT22;8530;49.540;8.576;2023-04-07T12:25:50;17.20;47.90
16827;DHT22;8530;49.540;8.576;2023-04-07T12:28:16;17.20;48.00
16827;DHT22;8530;49.540;8.576;2023-04-07T12:30:43;17.30;48.10
16827;DHT22;8530;49.540;8.576;2023-04-07T12:33:10;17.30;48.00
16827;DHT22;8530;49.540;8.576;2023-04-07T12:35:36;17.20;48.00
16827;DHT22;8530;49.540;8.576;2023-04-07T12:38:06;17.30;48.10
16827;DHT22;8530;49.540;8.576;2023-04-07T12:40:33;17.40;48.20
16827;DHT22;8530;49.540;8.576;2023-04-07T12:43:00;17.60;48.30
16827;DHT22;8530;49.540;8.576;2023-04-07T12:45:28;17.70;48.20
16827;DHT22;8530;49.540;8.576;2023-04-07T12:47:55;17.80;48.20
16827;DHT22;8530;49.540;8.576;2023-04-07T12:50:22;17.80;48.00
16827;DHT22;8530;49.540;8.576;2023-04-07T12:52:49;17.80;47.90
16827;DHT22;8530;49.540;8.576;2023-04-07T12:55:17;17.80;48.00
16827;DHT22;8530;49.540;8.576;2023-04-07T12:57:44;17.60;48.00
16827;DHT22;8530;49.540;8.576;2023-04-07T13:00:13;17.30;48.00
16827;DHT22;8530;49.540;8.576;2023-04-07T13:02:41;17.20;48.40
16827;DHT22;8530;49.540;8.576;2023-04-07T13:05:08;17.00;48.70
16827;DHT22;8530;49.540;8.576;2023-04-07T13:07:34;16.80;48.90
16827;DHT22;8530;49.540;8.576;2023-04-07T13:10:02;16.60;49.10
16827;DHT22;8530;49.540;8.576;2023-04-07T13:12:31;16.50;49.50
16827;DHT22;8530;49.540;8.576;2023-04-07T13:14:58;16.50;50.00
16827;DHT22;8530;49.540;8.576;2023-04-07T13:17:25;16.60;50.30
16827;DHT22;8530;49.540;8.576;2023-04-07T13:19:53;16.60;50.60
16827;DHT22;8530;49.540;8.576;2023-04-07T13:22:20;16.50;50.50
16827;DHT22;8530;49.540;8.576;2023-04-07T13:24:46;16.40;50.70
16827;DHT22;8530;49.540;8.576;2023-04-07T13:27:13;16.30;50.90
16827;DHT22;8530;49.540;8.576;2023-04-07T13:29:41;16.10;51.00
16827;DHT22;8530;49.540;8.576;2023-04-07T13:32:09;16.00;51.30
16827;DHT22;8530;49.540;8.576;2023-04-07T13:34:38;16.00;51.60
16827;DHT22;8530;49.540;8.576;2023-04-07T13:37:05;15.90;51.60
16827;DHT22;8530;49.540;8.576;2023-04-07T13:39:32;15.70;51.60
16827;DHT22;8530;49.540;8.576;2023-04-07T13:41:59;15.70;52.00
16827;DHT22;8530;49.540;8.576;2023-04-07T13:44:26;15.70;52.20
16827;DHT22;8530;49.540;8.576;2023-04-07T13:46:55;15.70;52.40
16827;DHT22;8530;49.540;8.576;2023-04-07T13:49:23;15.80;52.70
16827;DHT22;8530;49.540;8.576;2023-04-07T13:51:49;15.90;52.90
16827;DHT22;8530;49.540;8.576;2023-04-07T13:54:16;16.00;53.50
16827;DHT22;8530;49.540;8.576;2023-04-07T13:56:43;16.00;53.00
16827;DHT22;8530;49.540;8.576;2023-04-07T13:59:12;16.00;53.10
16827;DHT22;8530;49.540;8.576;2023-04-07T14:01:39;15.90;53.00
16827;DHT22;8530;49.540;8.576;2023-04-07T14:04:08;15.90;53.20
16827;DHT22;8530;49.540;8.576;2023-04-07T14:06:34;15.90;53.20
16827;DHT22;8530;49.540;8.576;2023-04-07T14:09:02;15.80;53.30
16827;DHT22;8530;49.540;8.576;2023-04-07T14:11:31;15.70;53.50
16827;DHT22;8530;49.540;8.576;2023-04-07T14:13:59;15.50;53.50
16827;DHT22;8530;49.540;8.576;2023-04-07T14:16:25;15.40;53.90
16827;DHT22;8530;49.540;8.576;2023-04-07T14:18:52;15.20;54.30
16827;DHT22;8530;49.540;8.576;2023-04-07T14:21:21;15.00;54.70
16827;DHT22;8530;49.540;8.576;2023-04-07T14:23:48;15.00;55.20
16827;DHT22;8530;49.540;8.576;2023-04-07T14:26:15;15.00;55.70
16827;DHT22;8530;49.540;8.576;2023-04-07T14:28:42;15.00;56.10
16827;DHT22;8530;49.540;8.576;2023-04-07T14:31:11;15.00;56.30
16827;DHT22;8530;49.540;8.576;2023-04-07T14:33:39;14.90;56.60
16827;DHT22;8530;49.540;8.576;2023-04-07T14:36:06;14.80;57.00
16827;DHT22;8530;49.540;8.576;2023-04-07T14:38:34;14.60;57.10
16827;DHT22;8530;49.540;8.576;2023-04-07T14:41:01;14.50;57.30
16827;DHT22;8530;49.540;8.576;2023-04-07T14:43:28;14.40;57.70
16827;DHT22;8530;49.540;8.576;2023-04-07T14:45:56;14.30;58.00
16827;DHT22;8530;49.540;8.576;2023-04-07T14:48:24;14.20;58.30
16827;DHT22;8530;49.540;8.576;2023-04-07T14:50:51;14.20;58.80
16827;DHT22;8530;49.540;8.576;2023-04-07T14:53:18;14.20;59.20
16827;DHT22;8530;49.540;8.576;2023-04-07T14:55:46;14.30;59.50
16827;DHT22;8530;49.540;8.576;2023-04-07T14:58:12;14.40;59.90
16827;DHT22;8530;49.540;8.576;2023-04-07T15:00:39;14.50;60.00
16827;DHT22;8530;49.540;8.576;2023-04-07T15:03:06;14.60;60.10
16827;DHT22;8530;49.540;8.576;2023-04-07T15:05:32;14.70;60.40
16827;DHT22;8530;49.540;8.576;2023-04-07T15:08:00;14.80;60.50
16827;DHT22;8530;49.540;8.576;2023-04-07T15:10:26;15.00;60.90
16827;DHT22;8530;49.540;8.576;2023-04-07T15:12:55;15.10;61.00
16827;DHT22;8530;49.540;8.576;2023-04-07T15:15:23;15.30;61.20
16827;DHT22;8530;49.540;8.576;2023-04-07T15:17:50;15.40;61.10
16827;DHT22;8530;49.540;8.576;2023-04-07T15:20:17;15.50;61.10
16827;DHT22;8530;49.540;8.576;2023-04-07T15:22:43;15.40;60.80
16827;DHT22;8530;49.540;8.576;2023-04-07T15:25:10;15.40;60.80
16827;DHT22;8530;49.540;8.576;2023-04-07T15:27:37;15.40;60.80
16827;DHT22;8530;49.540;8.576;2023-04-07T15:30:07;15.40;61.50
16827;DHT22;8530;49.540;8.576;2023-04-07T15:32:34;15.40;60.50
16827;DHT22;8530;49.540;8.576;2023-04-07T15:35:00;15.30;60.20
16827;DHT22;8530;49.540;8.576;2023-04-07T15:37:27;15.10;60.10
16827;DHT22;8530;49.540;8.576;2023-04-07T15:39:54;14.90;59.90
16827;DHT22;8530;49.540;8.576;2023-04-07T15:42:21;14.70;59.80
16827;DHT22;8530;49.540;8.576;2023-04-07T15:44:49;14.60;59.80
16827;DHT22;8530;49.540;8.576;2023-04-07T15:47:18;14.60;60.00
16827;DHT22;8530;49.540;8.576;2023-04-07T15:49:45;14.50;60.00
16827;DHT22;8530;49.540;8.576;2023-04-07T15:52:12;14.40;60.00
16827;DHT22;8530;49.540;8.576;2023-04-07T15:54:39;14.40;60.20
16827;DHT22;8530;49.540;8.576;2023-04-07T15:57:06;14.20;60.00
16827;DHT22;8530;49.540;8.576;2023-04-07T15:59:33;14.20;60.10
16827;DHT22;8530;49.540;8.576;2023-04-07T16:02:00;14.00;60.00
16827;DHT22;8530;49.540;8.576;2023-04-07T16:04:30;13.90;60.10
16827;DHT22;8530;49.540;8.576;2023-04-07T16:06:57;13.90;60.30